Map

Track Data

SID SEASON NUMBER BASIN SUBBASIN NAME ISO_TIME NATURE LAT LON WMO_WIND WMO_PRES WMO_AGENCY TRACK_TYPE DIST2LAND LANDFALL IFLAG USA_AGENCY USA_ATCF_ID USA_LAT USA_LON USA_RECORD USA_STATUS USA_WIND USA_PRES USA_SSHS USA_R34_NE USA_R34_SE USA_R34_SW USA_R34_NW USA_R50_NE USA_R50_SE USA_R50_SW USA_R50_NW USA_R64_NE USA_R64_SE USA_R64_SW USA_R64_NW USA_POCI USA_ROCI USA_RMW USA_EYE TOKYO_LAT TOKYO_LON TOKYO_GRADE TOKYO_WIND TOKYO_PRES TOKYO_R50_DIR TOKYO_R50_LONG TOKYO_R50_SHORT TOKYO_R30_DIR TOKYO_R30_LONG TOKYO_R30_SHORT TOKYO_LAND CMA_LAT CMA_LON CMA_CAT CMA_WIND CMA_PRES HKO_LAT HKO_LON HKO_CAT HKO_WIND HKO_PRES NEWDELHI_LAT NEWDELHI_LON NEWDELHI_GRADE NEWDELHI_WIND NEWDELHI_PRES NEWDELHI_CI NEWDELHI_DP NEWDELHI_POCI REUNION_LAT REUNION_LON REUNION_TYPE REUNION_WIND REUNION_PRES REUNION_TNUM REUNION_CI REUNION_RMW REUNION_R34_NE REUNION_R34_SE REUNION_R34_SW REUNION_R34_NW REUNION_R50_NE REUNION_R50_SE REUNION_R50_SW REUNION_R50_NW REUNION_R64_NE REUNION_R64_SE REUNION_R64_SW REUNION_R64_NW BOM_LAT BOM_LON BOM_TYPE BOM_WIND BOM_PRES BOM_TNUM BOM_CI BOM_RMW BOM_R34_NE BOM_R34_SE BOM_R34_SW BOM_R34_NW BOM_R50_NE BOM_R50_SE BOM_R50_SW BOM_R50_NW BOM_R64_NE BOM_R64_SE BOM_R64_SW BOM_R64_NW BOM_ROCI BOM_POCI BOM_EYE BOM_POS_METHOD BOM_PRES_METHOD NADI_LAT NADI_LON NADI_CAT NADI_WIND NADI_PRES WELLINGTON_LAT WELLINGTON_LON WELLINGTON_WIND WELLINGTON_PRES DS824_LAT DS824_LON DS824_STAGE DS824_WIND DS824_PRES TD9636_LAT TD9636_LON TD9636_STAGE TD9636_WIND TD9636_PRES TD9635_LAT TD9635_LON TD9635_WIND TD9635_PRES TD9635_ROCI NEUMANN_LAT NEUMANN_LON NEUMANN_CLASS NEUMANN_WIND NEUMANN_PRES MLC_LAT MLC_LON MLC_CLASS MLC_WIND MLC_PRES USA_GUST BOM_GUST BOM_GUST_PER REUNION_GUST REUNION_GUST_PER USA_SEAHGT USA_SEARAD_NE USA_SEARAD_SE USA_SEARAD_SW USA_SEARAD_NW STORM_SPEED STORM_DIR
1934104N21133 1934 21 WP MM NOT_NAMED 1934-04-13 21:00:00 NR 21.3000 133.100 main 1109 1098 __________O___ -1 21.3000 133.100 4 3 19
1934104N21133 1934 21 WP MM NOT_NAMED 1934-04-14 00:00:00 NR 21.4243 133.142 main 1098 1078 __________P___ -1 21.4243 133.142 4 3 20
1934104N21133 1934 21 WP MM NOT_NAMED 1934-04-14 03:00:00 NR 21.6189 133.226 main 1078 1048 __________P___ -1 21.6189 133.226 4 6 24
1934104N21133 1934 21 WP MM NOT_NAMED 1934-04-14 06:00:00 NR 21.9541 133.398 main 1040 994 __________P___ -1 21.9541 133.398 4 10 26
1934104N21133 1934 21 WP MM NOT_NAMED 1934-04-14 09:00:00 NR 22.5000 133.700 main 994 933 __________O___ -1 22.5000 133.700 4 15 28
1934104N21133 1934 21 WP MM NOT_NAMED 1934-04-14 12:00:00 NR 23.2924 134.161 main 926 855 __________P___ -1 23.2924 134.161 4 20 29
1934104N21133 1934 21 WP MM NOT_NAMED 1934-04-14 15:00:00 NR 24.2299 134.731 main 855 798 __________P___ -1 24.2299 134.731 4 22 30
1934104N21133 1934 21 WP MM NOT_NAMED 1934-04-14 18:00:00 NR 25.1772 135.336 main 788 745 __________P___ -1 25.1772 135.336 4 21 31
1934104N21133 1934 21 WP MM NOT_NAMED 1934-04-14 21:00:00 NR 26.0000 135.900 main 745 724 __________O___ -1 26.0000 135.900 4 16 35
1934104N21133 1934 21 WP MM NOT_NAMED 1934-04-15 00:00:00 NR 26.4774 136.364 main 731 726 __________P___ -1 26.4774 136.364 4 11 43
1934104N21133 1934 21 WP MM NOT_NAMED 1934-04-15 03:00:00 NR 26.8242 136.761 main 733 712 __________P___ -1 26.8242 136.761 4 9 44
1934104N21133 1934 21 WP MM NOT_NAMED 1934-04-15 06:00:00 NR 27.1339 137.078 main 713 673 __________P___ -1 27.1339 137.078 4 8 35
1934104N21133 1934 21 WP MM NOT_NAMED 1934-04-15 09:00:00 NR 27.5000 137.300 main 673 619 __________O___ -1 27.5000 137.300 4 9 13
1934104N21133 1934 21 WP MM NOT_NAMED 1934-04-15 12:00:00 NR 28.0436 137.323 main 619 554 __________P___ -1 28.0436 137.323 4 12 0
1934104N21133 1934 21 WP MM NOT_NAMED 1934-04-15 15:00:00 NR 28.6577 137.270 main 543 478 __________P___ -1 28.6577 137.270 4 13 357
1934104N21133 1934 21 WP MM NOT_NAMED 1934-04-15 18:00:00 NR 29.3180 137.256 main 478 408 __________P___ -1 29.3180 137.256 4 14 5
1934104N21133 1934 21 WP MM NOT_NAMED 1934-04-15 21:00:00 NR 30.0000 137.400 main 408 365 __________O___ -1 30.0000 137.400 4 13 16
1934104N21133 1934 21 WP MM NOT_NAMED 1934-04-16 00:00:00 NR 30.5456 137.670 main 369 335 __________P___ -1 30.5456 137.670 4 13 30
1934104N21133 1934 21 WP MM NOT_NAMED 1934-04-16 03:00:00 NR 31.1230 138.142 main 335 312 __________P___ -1 31.1230 138.142 4 16 39
1934104N21133 1934 21 WP MM NOT_NAMED 1934-04-16 06:00:00 NR 31.8145 138.890 main 312 241 __________P___ -1 31.8145 138.890 4 22 45
1934104N21133 1934 21 WP MM NOT_NAMED 1934-04-16 09:00:00 NR 32.7000 140.000 main 239 185 __________O___ -1 32.7000 140.000 4 31 48
1934104N21133 1934 21 WP MM NOT_NAMED 1934-04-16 12:00:00 NR 33.8782 141.648 main 181 181 __________P___ -1 33.8782 141.648 4 40 50
1934104N21133 1934 21 WP MM NOT_NAMED 1934-04-16 15:00:00 NR 35.2222 143.685 main 259 259 __________P___ -1 35.2222 143.685 4 44 52
1934104N21133 1934 21 WP MM NOT_NAMED 1934-04-16 18:00:00 NR 36.6264 145.910 main 431 431 __________P___ -1 36.6264 145.910 4 45 52
1934104N21133 1934 21 WP MM NOT_NAMED 1934-04-16 21:00:00 NR 38.0000 148.100 main 544 544 __________O___ -1 38.0000 148.100 4 42 51
1934104N21133 1934 21 WP MM NOT_NAMED 1934-04-17 00:00:00 NR 39.2870 150.067 main 578 575 __________P___ -1 39.2870 150.067 4 38 49
1934104N21133 1934 21 WP MM NOT_NAMED 1934-04-17 03:00:00 NR 40.5017 151.834 main 586 534 __________P___ -1 40.5017 151.834 4 35 47
1934104N21133 1934 21 WP MM NOT_NAMED 1934-04-17 06:00:00 NR 41.6674 153.483 main 529 514 __________P___ -1 41.6674 153.483 4 33 47
1934104N21133 1934 21 WP MM NOT_NAMED 1934-04-17 09:00:00 NR 42.8000 155.100 main 520 __________O___ -1 42.8000 155.100 4 33 46

Digital Typhoon Data and Search

About IBTrACS Database

This database is a web-friendly format of International Best Track Archive for Climate Stewardship (IBTrACS), a global best track data archive curated by NOAA dating back to 1842.

Updated: 2021-11-26